ADDS METAR Data INFO
IDs: Format: Raw Decoded Include TAF

Data at: 1850 UTC 16 Dec 2017

KVPC 161753Z AUTO VRB03KT 10SM CLR 08/M02 A3029 RMK AO2 SLP258 I6000 T00781022 10078 21061 58013
KVPC 161653Z AUTO 00000KT 10SM CLR 06/M03 A3032 RMK AO2 SLP269 T00561028
KVPC 161553Z AUTO VRB03KT 10SM CLR 03/M02 A3034 RMK AO2 SLP276 T00281022
KVPC 161453Z AUTO VRB03KT 8SM CLR M01/M03 A3033 RMK AO2 SLP274 I3000 T10061028 53014
KVPC 161353Z AUTO 00000KT 5SM BR CLR M03/M03 A3031 RMK AO2 SLP267 T10281033
KVPC 161253Z AUTO 00000KT 5SM BR CLR M06/M06 A3029 RMK AO2 SLP261 I1000 T10561056
KVPC 161153Z AUTO 00000KT 6SM BR CLR M06/M06 A3029 RMK AO2 SLP259 I1000 I6000 T10561061 11039 21061 53008
KVPC 161053Z AUTO 00000KT 6SM BR CLR M06/M06 A3026 RMK AO2 SLP251 T10561056
KVPC 160953Z AUTO 00000KT 6SM BR CLR M05/M05 A3026 RMK AO2 SLP247 T10501050
KVPC 160853Z AUTO 00000KT 7SM CLR M04/M05 A3026 RMK AO2 SLP250 T10441050 53006
KVPC 160753Z AUTO 00000KT 7SM CLR M05/M05 A3025 RMK AO2 SLP245 T10501050
KVPC 160653Z AUTO 00000KT 7SM CLR M04/M05 A3024 RMK AO2 SLP243 T10391050
KVPC 160553Z AUTO 00000KT 8SM CLR M04/M05 A3025 RMK AO2 SLP244 T10391050 11006 21039 51006
KVPC 160453Z AUTO 00000KT 9SM CLR M03/M04 A3025 RMK AO2 SLP244 T10331044 400441033
KVPC 160353Z AUTO 00000KT 9SM CLR M03/M04 A3024 RMK AO2 SLP241 T10331044
KVPC 160253Z AUTO 00000KT 9SM CLR M03/M04 A3023 RMK AO2 SLP237 T10281039 53009
KVPC 160153Z AUTO 00000KT 10SM CLR M02/M04 A3021 RMK AO2 SLP231 T10221044
KVPC 160053Z AUTO 00000KT 10SM CLR M02/M04 A3020 RMK AO2 SLP229 T10171044
KVPC 152353Z AUTO 00000KT 10SM CLR M01/M04 A3020 RMK AO2 SLP228 T10061044 10033 21006 53019
KVPC 152253Z AUTO 00000KT 10SM CLR 01/M04 A3017 RMK AO2 SLP218 T00111044
KVPC 152153Z AUTO VRB03KT 10SM CLR 02/M04 A3015 RMK AO2 SLP209 T00221044
KVPC 152053Z AUTO VRB03KT 10SM CLR 03/M04 A3014 RMK AO2 SLP207 T00281044 55003
KVPC 151953Z AUTO 00000KT 10SM CLR 03/M04 A3012 RMK AO2 SLP199 T00331039
KVPC 151853Z AUTO 34006KT 10SM CLR 03/M04 A3013 RMK AO2 SLP201 T00281044
KVPC 151753Z AUTO 33007KT 280V360 10SM CLR 03/M04 A3015 RMK AO2 SLP209 T00281044 10033 21006 50014
KVPC 151653Z AUTO VRB04KT 10SM FEW026 03/M04 A3015 RMK AO2 SLP209 T00281039
KVPC 151553Z AUTO VRB03KT 10SM CLR 02/M03 A3013 RMK AO2 SLP202 T00221033
KVPC 151453Z AUTO VRB04KT 10SM CLR 02/M03 A3011 RMK AO2 SLP194 T00171028 53017
KVPC 151353Z AUTO 00000KT 9SM CLR 01/M02 A3009 RMK AO2 SLP189 T00111017
KVPC 151253Z AUTO 00000KT 9SM CLR 00/M02 A3006 RMK AO2 SLP178 T00001017
KVPC 151153Z AUTO 00000KT 10SM CLR M01/M02 A3006 RMK AO2 SLP178 T10061017 10044 21006 53008
KVPC 151053Z AUTO 00000KT 10SM CLR 01/M02 A3004 RMK AO2 SLP169 T00061017
KVPC 150953Z AUTO 00000KT 10SM CLR 02/M02 A3004 RMK AO2 SLP168 T00171017
KVPC 150853Z AUTO VRB03KT 10SM CLR 03/M01 A3003 RMK AO2 SLP166 T00281006 53002
KVPC 150753Z AUTO 34003KT 10SM CLR 04/M01 A3001 RMK AO2 SLP159 T00391011
KVPC 150653Z AUTO 34003KT 10SM CLR 04/00 A3001 RMK AO2 SLP159 T00440000